Hyampom, California
Current Conditions -  °F | °C
As of 1:35 PM on Thursday 23 Oct 2014 (Local Time) from KO54 Reporting Station
Broken Clouds Broken Clouds  
Wind Chill: 54°   Ceiling: 400
Heat Index: 54°   Visibility: 2.5mi
Dew Point: 50°   Wind: 0mph
Humidity: 88%   Direction: NA
Pressure: 30.07"   Gusts: NA
Location:  40.62°N, 123.45°W
Report Text: KO54 232035Z AUTO 00000KT 2 1/2SM BKN004 BKN030 BKN060 12/10 A3007 RMK AO1 P0014
Loading
Personal Weather Stations






























Interactive Weather Map
Tropical Storm Tracking
New forecast layout! Learn more

10-Day Weather Forecast

Advertisements
Track Severe Weather on mobile